Decker, Michigan
Current Conditions -  °F | °C
As of 10:55 PM on Saturday 25 Oct 2014 (Local Time) from KCFS Reporting Station
Clear Clear  
Wind Chill: 44°   Ceiling: Unl
Heat Index: 47°   Visibility: 10mi
Dew Point: 35°   Wind: 6mph
Humidity: 63%   Direction: 270°W
Pressure: 29.78"   Gusts: NA
Location:  43.46°N, 83.05°W
Report Text: KCFS 260255Z AUTO 27005KT 10SM CLR 08/02 A2978 RMK AO2 T00830017
Loading
Personal Weather Stations






























Interactive Weather Map
Tropical Storm Tracking
New forecast layout! Learn more

10-Day Weather Forecast

Advertisements
Track Severe Weather on mobile